Station: Maningrida Airport  

  Atmospheric Gas Attenuation - ITU Rec 676-11   ----------------- dB/100km -----------------
Date Time Temp RH % AH g/m3 Dew Point Wind Direction Speed kph Gust kph Barometer mB Rainfall Since 9am 24GHz 47GHz 76GHz 122GHz 134GHz 241GHz
06/05 09:10 27.1 75 19.41 22.3 26 33 1012.4 0 41.6 39.8 76.9 203.5 224.6 780.4
06/05 09:00 27.5 76 20.11 22.9 24 37 1012.5 0 43.0 40.9 79.8 211.1 234.0 813.3
06/05 08:50 26.9 77 19.71 22.5 15 17 1012.5 0 42.3 40.4 78.5 207.8 229.8 798.4
06/05 08:40 26.7 76 19.24 22.1 26 33 1012.4 0 41.3 39.6 76.5 202.5 223.2 775.6
06/05 08:30 26.5 77 19.28 22.1 20 30 1012.5 0 41.4 39.8 76.9 203.5 224.4 779.8
06/05 08:20 26 78 18.99 21.9 22 26 1012.5 0 40.8 39.5 76.1 201.3 221.5 769.6
06/05 08:10 25.9 81 19.61 22.4 15 20 1012.5 0 42.2 40.7 79.1 209.3 231.3 803.7
06/05 08:00 25.4 82 19.3 22.1 17 24 1012.5 0 41.6 40.4 78.2 206.8 228.1 792.3
06/05 07:50 25.5 80 18.94 21.8 24 26 1012.4 0 40.8 39.7 76.3 202.0 222.2 771.9
06/05 07:40 25.2 82 19.09 21.9 22 26 1012.2 0 41.1 40.1 77.3 204.6 225.4 782.9
06/05 07:30 24.8 83 18.89 21.7 17 22 1012.2 0 40.8 39.9 76.8 203.2 223.5 776.3
06/05 07:20 24.3 86 19.03 21.8 15 17 1012 0 41.1 40.4 78.0 206.3 227.2 789.0
06/05 07:10 23.6 89 18.93 21.7 13 17 1011.9 0 41.0 40.5 78.2 206.9 227.7 790.8
06/05 07:00 23.1 90 18.6 21.4 9 13 1011.8 0 40.3 40.1 77.1 204.0 224.1 777.9
06/05 06:50 22.9 90 18.39 21.2 9 11 1011.7 0 39.9 39.8 76.3 201.9 221.3 768.5
06/05 06:40 22.9 90 18.39 21.2 9 11 1011.6 0 39.9 39.8 76.3 201.9 221.3 768.4
06/05 06:30 23 89 18.29 21.1 11 17 1011.4 0 39.7 39.6 75.7 200.3 219.4 761.9
06/05 06:20 23.1 89 18.4 21.2 11 15 1011.2 0 39.9 39.7 76.1 201.4 220.8 766.7
06/05 06:10 23.1 89 18.4 21.2 13 15 1011.1 0 39.9 39.7 76.1 201.4 220.8 766.7
06/05 06:00 23.1 89 18.4 21.2 11 17 1011.1 0 39.9 39.7 76.1 201.4 220.8 766.7
06/05 05:50 23.2 89 18.5 21.3 13 15 1010.8 0 40.1 39.8 76.5 202.3 222.0 770.9
06/05 05:40 23.2 89 18.5 21.3 11 13 1010.7 0 40.1 39.8 76.5 202.3 222.0 770.9
06/05 05:30 23 90 18.5 21.3 9 15 1010.7 0 40.1 39.9 76.7 202.8 222.6 772.9
06/05 05:20 23.1 90 18.6 21.4 13 13 1010.7 0 40.3 40.1 77.1 203.9 223.9 777.4
06/05 05:10 23.1 90 18.6 21.4 11 13 1010.7 0 40.3 40.1 77.1 203.9 223.9 777.4
06/05 05:00 23.1 90 18.6 21.4 9 15 1010.9 0 40.3 40.1 77.1 203.9 223.9 777.5
06/05 04:50 23.1 91 18.81 21.5 11 15 1010.7 0 40.8 40.5 78.1 206.5 227.2 788.9
06/05 04:40 23.1 91 18.81 21.5 11 13 1010.6 0 40.8 40.5 78.1 206.5 227.2 788.8
06/05 04:30 23.1 90 18.6 21.4 11 17 1010.7 0 40.3 40.1 77.1 203.9 223.9 777.4
06/05 04:20 23.1 90 18.6 21.4 11 15 1010.6 0 40.3 40.1 77.1 203.8 223.9 777.3
06/05 04:10 23.1 90 18.6 21.4 9 11 1010.7 0 40.3 40.1 77.1 203.9 223.9 777.4
06/05 04:00 23.1 90 18.6 21.4 9 15 1010.9 0 40.3 40.1 77.1 203.9 223.9 777.5
06/05 03:50 23.2 90 18.71 21.5 11 13 1010.7 0 40.5 40.2 77.5 205.0 225.3 782.3
06/05 03:40 23.2 90 18.71 21.5 11 13 1010.7 0 40.5 40.2 77.5 205.0 225.3 782.3
06/05 03:30 23.1 90 18.6 21.4 9 11 1010.8 0 40.3 40.1 77.1 203.9 223.9 777.4
06/05 03:20 23.1 90 18.6 21.4 9 11 1010.7 0 40.3 40.1 77.1 203.9 223.9 777.4
06/05 03:10 23.2 90 18.71 21.5 9 13 1010.8 0 40.5 40.2 77.5 205.0 225.3 782.4
06/05 03:00 23.3 89 18.61 21.4 9 11 1010.9 0 40.3 40.0 76.9 203.5 223.5 775.9
06/05 02:50 23.6 88 18.72 21.5 11 13 1010.7 0 40.5 40.1 77.1 204.0 224.3 778.7
06/05 02:40 23.9 86 18.6 21.4 13 15 1010.7 0 40.2 39.7 76.2 201.7 221.5 769.1
06/05 02:30 23.9 86 18.6 21.4 13 19 1010.9 0 40.2 39.7 76.3 201.7 221.5 769.2
06/05 02:20 24.2 85 18.7 21.5 13 15 1010.8 0 40.4 39.7 76.4 202.2 222.2 771.5
06/05 02:10 24.2 85 18.7 21.5 9 13 1010.9 0 40.4 39.8 76.4 202.2 222.2 771.6
06/05 02:00 24.3 84 18.59 21.4 13 22 1011.2 0 40.2 39.5 75.8 200.6 220.2 764.8
06/05 01:50 24.6 83 18.68 21.5 15 19 1011.1 0 40.3 39.5 75.9 200.9 220.7 766.5
06/05 01:40 24.5 83 18.58 21.4 15 20 1011.2 0 40.1 39.4 75.6 199.9 219.5 762.2
06/05 01:30 24.8 82 18.66 21.5 15 22 1011.4 0 40.3 39.4 75.7 200.2 219.9 763.6
06/05 01:20 24.6 82 18.46 21.3 11 13 1011.3 0 39.9 39.1 74.9 198.2 217.4 754.9
06/05 01:10 24.7 82 18.56 21.4 13 15 1011.5 0 40.1 39.3 75.3 199.2 218.6 759.3
06/05 01:00 24.9 81 18.54 21.4 15 20 1011.6 0 40.0 39.1 75.0 198.4 217.8 756.3
06/05 00:50 24.9 80 18.31 21.2 15 15 1011.5 0 39.5 38.7 73.9 195.6 214.2 744.1
06/05 00:40 25 80 18.42 21.3 15 26 1011.5 0 39.7 38.9 74.4 196.7 215.6 748.9
06/05 00:30 25.2 79 18.39 21.3 13 19 1011.7 0 39.7 38.7 74.0 195.8 214.6 745.4
06/05 00:20 25.4 78 18.36 21.3 13 15 1011.6 0 39.6 38.6 73.7 194.9 213.6 741.8
06/05 00:10 25.6 77 18.33 21.3 17 20 1011.6 0 39.5 38.4 73.4 194.0 212.6 738.3
06/05 00:00 25.7 77 18.43 21.4 17 22 1011.7 0 39.7 38.6 73.7 195.0 213.8 742.6
05/05 23:50 25.7 77 18.43 21.4 17 20 1011.7 0 39.7 38.6 73.7 195.0 213.8 742.6
05/05 23:40 25.9 76 18.4 21.3 19 22 1011.7 0 39.6 38.4 73.4 194.2 212.8 739.1
05/05 23:30 25.9 76 18.4 21.3 17 24 1011.8 0 39.6 38.4 73.4 194.2 212.8 739.2
05/05 23:20 25.8 76 18.3 21.2 15 17 1011.6 0 39.4 38.3 73.0 193.2 211.5 734.8
05/05 23:10 25.7 77 18.43 21.4 17 22 1011.7 0 39.7 38.6 73.7 195.0 213.8 742.6
05/05 23:00 25.5 77 18.23 21.2 11 15 1011.9 0 39.3 38.3 73.0 193.1 211.4 734.2
05/05 22:50 25.5 78 18.47 21.4 9 11 1011.7 0 39.8 38.7 74.1 196.0 215.0 746.7
05/05 22:40 25.5 78 18.47 21.4 11 11 1011.7 0 39.8 38.7 74.1 196.0 215.0 746.7
05/05 22:30 25.6 77 18.33 21.3 11 17 1011.9 0 39.5 38.4 73.4 194.1 212.6 738.5
05/05 22:20 25.5 78 18.47 21.4 13 15 1011.8 0 39.8 38.7 74.1 196.1 215.0 746.7
05/05 22:10 25.8 77 18.54 21.5 11 13 1011.8 0 39.9 38.7 74.1 196.1 215.2 747.5
05/05 22:00 25.8 77 18.54 21.5 11 13 1012 0 39.9 38.7 74.2 196.2 215.2 747.6
05/05 21:50 26.1 76 18.61 21.5 11 15 1011.8 0 40.0 38.7 74.2 196.2 215.4 748.2
05/05 21:40 26 77 18.75 21.7 11 13 1011.7 0 40.3 39.0 74.9 198.2 217.8 756.5
05/05 21:30 26.2 76 18.71 21.6 13 17 1011.7 0 40.2 38.9 74.5 197.2 216.6 752.4
05/05 21:20 26.6 75 18.88 21.8 13 15 1011.7 0 40.5 39.0 74.9 198.2 218.0 757.3
05/05 21:10 27 73 18.79 21.7 11 13 1011.6 0 40.3 38.6 74.1 196.1 215.5 748.6
05/05 21:00 27 74 19.05 22 11 15 1011.7 0 40.9 39.1 75.3 199.3 219.4 762.2
05/05 20:50 26.6 80 20.14 22.9 7 9 1011.5 0 43.2 41.4 80.8 213.9 237.2 824.1
05/05 20:40 26.9 81 20.73 23.4 9 11 1011.4 0 44.4 42.3 83.3 220.5 245.4 852.7
05/05 20:30 27.1 82 21.22 23.8 9 11 1011.5 0 45.5 43.2 85.5 226.2 252.5 877.3
05/05 20:20 27 85 21.88 24.3 9 9 1011.3 0 46.9 44.5 88.8 235.1 263.3 914.9
05/05 20:10 27.2 86 22.38 24.6 7 7 1011.1 0 47.9 45.4 91.0 241.0 270.6 940.4
05/05 20:00 27.4 84 22.1 24.5 7 9 1011.1 0 47.3 44.7 89.4 236.7 265.4 922.2
05/05 19:50 27.5 83 21.96 24.3 7 7 1010.9 0 47.0 44.4 88.6 234.5 262.7 913.0
05/05 19:40 27.5 83 21.96 24.3 6 7 1010.7 0 47.0 44.4 88.5 234.4 262.7 912.9
05/05 19:30 27.6 82 21.82 24.2 7 9 1010.6 0 46.7 44.0 87.7 232.3 260.1 903.9
05/05 19:20 27.7 81 21.67 24.1 7 9 1010.3 0 46.3 43.7 86.9 230.0 257.3 894.2
05/05 19:10 27.7 81 21.67 24.1 7 9 1010.1 0 46.3 43.7 86.9 230.0 257.3 894.1
05/05 19:00 27.8 80 21.52 24 7 9 1010.1 0 46.0 43.3 86.0 227.7 254.6 884.7
05/05 18:50 28.1 78 21.33 23.9 6 7 1009.9 0 45.6 42.8 84.7 224.4 250.5 870.7
05/05 18:40 28.2 78 21.45 24 7 7 1009.9 0 45.8 43.0 85.2 225.6 252.1 876.1
05/05 18:30 28.3 77 21.29 23.9 7 11 1009.8 0 45.5 42.6 84.3 223.2 249.2 866.2
05/05 18:20 28.5 75 20.96 23.6 7 9 1009.7 0 44.7 41.9 82.5 218.5 243.4 846.2
05/05 18:10 28.8 73 20.74 23.5 9 11 1009.6 0 44.3 41.3 81.2 214.9 239.1 831.1
05/05 18:00 29.1 72 20.8 23.5 9 13 1009.6 0 44.3 41.3 81.1 214.8 239.1 831.0
05/05 17:50 29.4 69 20.26 23.3 11 13 1009.4 0 43.2 40.1 78.3 207.3 230.0 799.4
05/05 17:40 29.7 69 20.59 23.4 11 13 1009.3 0 43.8 40.6 79.5 210.4 233.9 813.3
05/05 17:30 29.8 68 20.4 23.3 11 19 1009.4 0 43.4 40.2 78.5 207.9 230.8 802.4
05/05 17:20 29.9 70 21.12 23.8 11 15 1009.2 0 44.9 41.5 81.7 216.4 241.3 838.8
05/05 17:10 30.1 69 21.04 23.8 9 11 1009.2 0 44.7 41.2 81.1 214.8 239.4 832.4
05/05 17:00 30.2 67 20.54 23.6 15 20 1009.3 0 43.7 40.3 78.7 208.5 231.7 805.4
05/05 16:50 30.1 67 20.43 23.5 15 17 1009.2 0 43.5 40.1 78.3 207.4 230.3 800.7
05/05 16:40 30.3 67 20.65 23.5 17 20 1009.2 0 43.9 40.4 79.1 209.5 233.0 809.9

Last Refresh: 06-May-2026 10:30:56

Bureau of Meteorology